ΕΜΥ, Εθνική Μετεωρολογική Υπηρεσία - Δελτία Καιρού, Προγνώσεις

ΑΕΡΟΝΑΥΤΙΛΙΑ

GREEK AIRPORTS CODES

LGKA 091400Z 04006KT 9999 FEW025 30/03 Q1016 RMK FEW080=

EUROPEAN AIRPORTS CODES

LFPO 091430Z 05011KT 020V080 CAVOK 31/10 Q1023=